sensor_id;sensor_type;location;lat;lon;timestamp;P1;durP1;ratioP1;P2;durP2;ratioP2
55879;SDS011;41802;51.564;-1.838;2022-07-06T00:01:14;3.15;;;1.67;;
55879;SDS011;41802;51.564;-1.838;2022-07-06T00:03:41;2.53;;;1.55;;
55879;SDS011;41802;51.564;-1.838;2022-07-06T00:06:07;1.88;;;1.40;;
55879;SDS011;41802;51.564;-1.838;2022-07-06T00:08:34;4.05;;;1.30;;
55879;SDS011;41802;51.564;-1.838;2022-07-06T00:11:02;2.40;;;1.10;;
55879;SDS011;41802;51.564;-1.838;2022-07-06T00:13:28;1.88;;;1.20;;
55879;SDS011;41802;51.564;-1.838;2022-07-06T00:15:55;1.55;;;1.13;;
55879;SDS011;41802;51.564;-1.838;2022-07-06T00:18:21;2.08;;;1.20;;
55879;SDS011;41802;51.564;-1.838;2022-07-06T00:20:48;4.18;;;1.60;;
55879;SDS011;41802;51.564;-1.838;2022-07-06T00:23:14;3.25;;;1.23;;
55879;SDS011;41802;51.564;-1.838;2022-07-06T00:25:41;3.53;;;1.73;;
55879;SDS011;41802;51.564;-1.838;2022-07-06T00:28:09;2.65;;;2.08;;
55879;SDS011;41802;51.564;-1.838;2022-07-06T00:30:35;3.22;;;1.70;;
55879;SDS011;41802;51.564;-1.838;2022-07-06T00:33:02;2.30;;;1.65;;
55879;SDS011;41802;51.564;-1.838;2022-07-06T00:35:28;2.25;;;1.70;;
55879;SDS011;41802;51.564;-1.838;2022-07-06T00:37:55;7.50;;;1.67;;
55879;SDS011;41802;51.564;-1.838;2022-07-06T00:40:21;1.75;;;1.63;;
55879;SDS011;41802;51.564;-1.838;2022-07-06T00:42:48;1.30;;;1.20;;
55879;SDS011;41802;51.564;-1.838;2022-07-06T00:45:16;3.60;;;1.80;;
55879;SDS011;41802;51.564;-1.838;2022-07-06T00:47:43;2.30;;;1.63;;
55879;SDS011;41802;51.564;-1.838;2022-07-06T00:50:10;4.32;;;2.33;;
55879;SDS011;41802;51.564;-1.838;2022-07-06T00:52:40;4.00;;;2.45;;
55879;SDS011;41802;51.564;-1.838;2022-07-06T00:55:07;3.47;;;2.15;;
55879;SDS011;41802;51.564;-1.838;2022-07-06T00:57:34;2.85;;;1.75;;
55879;SDS011;41802;51.564;-1.838;2022-07-06T01:00:00;3.55;;;1.73;;
55879;SDS011;41802;51.564;-1.838;2022-07-06T01:02:29;6.07;;;1.80;;
55879;SDS011;41802;51.564;-1.838;2022-07-06T01:04:56;3.30;;;1.83;;
55879;SDS011;41802;51.564;-1.838;2022-07-06T01:07:22;5.43;;;1.75;;
55879;SDS011;41802;51.564;-1.838;2022-07-06T01:09:49;3.47;;;1.95;;
55879;SDS011;41802;51.564;-1.838;2022-07-06T01:12:15;4.55;;;2.25;;
55879;SDS011;41802;51.564;-1.838;2022-07-06T01:14:42;3.47;;;1.60;;
55879;SDS011;41802;51.564;-1.838;2022-07-06T01:17:09;3.20;;;2.25;;
55879;SDS011;41802;51.564;-1.838;2022-07-06T01:19:38;2.33;;;1.90;;
55879;SDS011;41802;51.564;-1.838;2022-07-06T01:22:11;2.30;;;2.03;;
55879;SDS011;41802;51.564;-1.838;2022-07-06T01:24:38;2.78;;;2.38;;
55879;SDS011;41802;51.564;-1.838;2022-07-06T01:27:05;3.35;;;2.97;;
55879;SDS011;41802;51.564;-1.838;2022-07-06T01:29:32;7.22;;;2.25;;
55879;SDS011;41802;51.564;-1.838;2022-07-06T01:31:58;4.20;;;2.53;;
55879;SDS011;41802;51.564;-1.838;2022-07-06T01:34:25;7.75;;;2.10;;
55879;SDS011;41802;51.564;-1.838;2022-07-06T01:36:52;4.43;;;2.95;;
55879;SDS011;41802;51.564;-1.838;2022-07-06T01:39:20;3.42;;;2.45;;
55879;SDS011;41802;51.564;-1.838;2022-07-06T01:41:46;3.78;;;2.85;;
55879;SDS011;41802;51.564;-1.838;2022-07-06T01:44:13;3.30;;;2.60;;
55879;SDS011;41802;51.564;-1.838;2022-07-06T01:46:39;4.88;;;3.00;;
55879;SDS011;41802;51.564;-1.838;2022-07-06T01:49:06;6.65;;;3.53;;
55879;SDS011;41802;51.564;-1.838;2022-07-06T01:51:32;6.10;;;3.08;;
55879;SDS011;41802;51.564;-1.838;2022-07-06T01:53:59;6.32;;;3.72;;
55879;SDS011;41802;51.564;-1.838;2022-07-06T01:56:27;7.18;;;3.10;;
55879;SDS011;41802;51.564;-1.838;2022-07-06T01:58:53;5.28;;;3.47;;
55879;SDS011;41802;51.564;-1.838;2022-07-06T02:01:20;4.70;;;2.85;;
55879;SDS011;41802;51.564;-1.838;2022-07-06T02:03:46;3.50;;;2.67;;
55879;SDS011;41802;51.564;-1.838;2022-07-06T02:06:13;4.88;;;3.47;;
55879;SDS011;41802;51.564;-1.838;2022-07-06T02:08:40;7.22;;;4.63;;
55879;SDS011;41802;51.564;-1.838;2022-07-06T02:11:08;4.25;;;3.45;;
55879;SDS011;41802;51.564;-1.838;2022-07-06T02:13:36;9.63;;;4.28;;
55879;SDS011;41802;51.564;-1.838;2022-07-06T02:16:03;4.55;;;3.00;;
55879;SDS011;41802;51.564;-1.838;2022-07-06T02:18:29;6.10;;;4.00;;
55879;SDS011;41802;51.564;-1.838;2022-07-06T02:20:57;4.65;;;3.42;;
55879;SDS011;41802;51.564;-1.838;2022-07-06T02:23:23;5.78;;;3.72;;
55879;SDS011;41802;51.564;-1.838;2022-07-06T02:25:51;6.78;;;4.53;;
55879;SDS011;41802;51.564;-1.838;2022-07-06T02:28:17;7.57;;;4.35;;
55879;SDS011;41802;51.564;-1.838;2022-07-06T02:30:45;4.60;;;3.50;;
55879;SDS011;41802;51.564;-1.838;2022-07-06T02:33:13;6.45;;;3.58;;
55879;SDS011;41802;51.564;-1.838;2022-07-06T02:35:39;4.32;;;3.03;;
55879;SDS011;41802;51.564;-1.838;2022-07-06T02:38:08;6.40;;;3.55;;
55879;SDS011;41802;51.564;-1.838;2022-07-06T02:40:35;8.60;;;3.30;;
55879;SDS011;41802;51.564;-1.838;2022-07-06T02:43:02;3.35;;;3.05;;
55879;SDS011;41802;51.564;-1.838;2022-07-06T02:45:28;4.65;;;2.60;;
55879;SDS011;41802;51.564;-1.838;2022-07-06T02:47:56;4.30;;;2.67;;
55879;SDS011;41802;51.564;-1.838;2022-07-06T02:50:23;8.20;;;3.17;;
55879;SDS011;41802;51.564;-1.838;2022-07-06T02:52:51;3.33;;;2.45;;
55879;SDS011;41802;51.564;-1.838;2022-07-06T02:55:17;4.65;;;2.90;;
55879;SDS011;41802;51.564;-1.838;2022-07-06T02:57:43;3.17;;;2.72;;
55879;SDS011;41802;51.564;-1.838;2022-07-06T03:00:10;3.40;;;2.67;;
55879;SDS011;41802;51.564;-1.838;2022-07-06T03:02:37;3.80;;;2.95;;
55879;SDS011;41802;51.564;-1.838;2022-07-06T03:05:05;6.97;;;3.17;;
55879;SDS011;41802;51.564;-1.838;2022-07-06T03:07:35;5.80;;;2.70;;
55879;SDS011;41802;51.564;-1.838;2022-07-06T03:10:01;7.20;;;3.22;;
55879;SDS011;41802;51.564;-1.838;2022-07-06T03:12:28;7.50;;;2.58;;
55879;SDS011;41802;51.564;-1.838;2022-07-06T03:14:54;5.78;;;3.40;;
55879;SDS011;41802;51.564;-1.838;2022-07-06T03:17:21;5.65;;;2.80;;
55879;SDS011;41802;51.564;-1.838;2022-07-06T03:19:47;5.40;;;3.15;;
55879;SDS011;41802;51.564;-1.838;2022-07-06T03:22:15;2.65;;;2.30;;
55879;SDS011;41802;51.564;-1.838;2022-07-06T03:24:42;3.70;;;3.00;;
55879;SDS011;41802;51.564;-1.838;2022-07-06T03:27:09;5.65;;;3.60;;
55879;SDS011;41802;51.564;-1.838;2022-07-06T03:29:35;4.80;;;3.10;;
55879;SDS011;41802;51.564;-1.838;2022-07-06T03:32:02;4.20;;;2.92;;
55879;SDS011;41802;51.564;-1.838;2022-07-06T03:34:29;2.85;;;2.30;;
55879;SDS011;41802;51.564;-1.838;2022-07-06T03:36:55;3.70;;;2.70;;
55879;SDS011;41802;51.564;-1.838;2022-07-06T03:39:23;4.57;;;2.30;;
55879;SDS011;41802;51.564;-1.838;2022-07-06T03:41:50;4.70;;;2.40;;
55879;SDS011;41802;51.564;-1.838;2022-07-06T03:44:16;3.55;;;2.78;;
55879;SDS011;41802;51.564;-1.838;2022-07-06T03:46:42;2.80;;;2.42;;
55879;SDS011;41802;51.564;-1.838;2022-07-06T03:49:09;4.07;;;2.33;;
55879;SDS011;41802;51.564;-1.838;2022-07-06T03:51:38;2.50;;;1.97;;
55879;SDS011;41802;51.564;-1.838;2022-07-06T03:54:05;4.93;;;2.83;;
55879;SDS011;41802;51.564;-1.838;2022-07-06T03:56:33;4.13;;;2.60;;
55879;SDS011;41802;51.564;-1.838;2022-07-06T03:59:00;5.45;;;2.95;;
55879;SDS011;41802;51.564;-1.838;2022-07-06T04:01:27;7.32;;;2.72;;
55879;SDS011;41802;51.564;-1.838;2022-07-06T04:03:55;4.72;;;2.50;;
55879;SDS011;41802;51.564;-1.838;2022-07-06T04:06:21;7.35;;;2.97;;
55879;SDS011;41802;51.564;-1.838;2022-07-06T04:08:48;4.15;;;2.08;;
55879;SDS011;41802;51.564;-1.838;2022-07-06T04:11:14;5.47;;;2.90;;
55879;SDS011;41802;51.564;-1.838;2022-07-06T04:13:42;4.20;;;2.85;;
55879;SDS011;41802;51.564;-1.838;2022-07-06T04:16:08;6.40;;;2.92;;
55879;SDS011;41802;51.564;-1.838;2022-07-06T04:18:35;3.15;;;2.65;;
55879;SDS011;41802;51.564;-1.838;2022-07-06T04:21:02;3.55;;;2.47;;
55879;SDS011;41802;51.564;-1.838;2022-07-06T04:23:28;4.88;;;2.45;;
55879;SDS011;41802;51.564;-1.838;2022-07-06T04:25:55;3.38;;;2.65;;
55879;SDS011;41802;51.564;-1.838;2022-07-06T04:28:21;4.18;;;3.13;;
55879;SDS011;41802;51.564;-1.838;2022-07-06T04:30:49;6.10;;;3.13;;
55879;SDS011;41802;51.564;-1.838;2022-07-06T04:33:15;4.75;;;2.90;;
55879;SDS011;41802;51.564;-1.838;2022-07-06T04:35:42;4.00;;;2.17;;
55879;SDS011;41802;51.564;-1.838;2022-07-06T04:38:08;3.30;;;2.53;;
55879;SDS011;41802;51.564;-1.838;2022-07-06T04:40:35;4.22;;;2.45;;
55879;SDS011;41802;51.564;-1.838;2022-07-06T04:43:01;4.72;;;2.53;;
55879;SDS011;41802;51.564;-1.838;2022-07-06T04:45:32;3.58;;;2.30;;
55879;SDS011;41802;51.564;-1.838;2022-07-06T04:47:59;6.97;;;3.08;;
55879;SDS011;41802;51.564;-1.838;2022-07-06T04:50:26;5.75;;;2.80;;
55879;SDS011;41802;51.564;-1.838;2022-07-06T04:52:52;3.10;;;2.30;;
55879;SDS011;41802;51.564;-1.838;2022-07-06T04:55:20;4.07;;;2.70;;
55879;SDS011;41802;51.564;-1.838;2022-07-06T04:57:47;4.72;;;2.40;;
55879;SDS011;41802;51.564;-1.838;2022-07-06T05:00:14;3.08;;;2.20;;
55879;SDS011;41802;51.564;-1.838;2022-07-06T05:02:40;5.80;;;2.88;;
55879;SDS011;41802;51.564;-1.838;2022-07-06T05:05:08;3.83;;;2.60;;
55879;SDS011;41802;51.564;-1.838;2022-07-06T05:07:35;3.50;;;2.80;;
55879;SDS011;41802;51.564;-1.838;2022-07-06T05:10:05;4.60;;;2.28;;
55879;SDS011;41802;51.564;-1.838;2022-07-06T05:12:31;6.20;;;2.40;;
55879;SDS011;41802;51.564;-1.838;2022-07-06T05:14:58;3.55;;;2.47;;
55879;SDS011;41802;51.564;-1.838;2022-07-06T05:17:25;2.90;;;2.10;;
55879;SDS011;41802;51.564;-1.838;2022-07-06T05:19:51;3.42;;;2.60;;
55879;SDS011;41802;51.564;-1.838;2022-07-06T05:22:19;3.47;;;2.60;;
55879;SDS011;41802;51.564;-1.838;2022-07-06T05:24:46;6.28;;;3.17;;
55879;SDS011;41802;51.564;-1.838;2022-07-06T05:27:12;3.13;;;2.70;;
55879;SDS011;41802;51.564;-1.838;2022-07-06T05:29:39;4.65;;;2.53;;
55879;SDS011;41802;51.564;-1.838;2022-07-06T05:32:06;3.22;;;2.65;;
55879;SDS011;41802;51.564;-1.838;2022-07-06T05:34:32;4.70;;;2.38;;
55879;SDS011;41802;51.564;-1.838;2022-07-06T05:36:59;9.57;;;3.05;;
55879;SDS011;41802;51.564;-1.838;2022-07-06T05:39:27;4.95;;;3.28;;
55879;SDS011;41802;51.564;-1.838;2022-07-06T05:41:53;4.78;;;3.05;;
55879;SDS011;41802;51.564;-1.838;2022-07-06T05:44:20;4.45;;;3.33;;
55879;SDS011;41802;51.564;-1.838;2022-07-06T05:46:46;5.80;;;3.20;;
55879;SDS011;41802;51.564;-1.838;2022-07-06T05:49:12;6.38;;;3.50;;
55879;SDS011;41802;51.564;-1.838;2022-07-06T05:51:57;5.65;;;3.90;;
55879;SDS011;41802;51.564;-1.838;2022-07-06T05:54:23;4.93;;;3.20;;
55879;SDS011;41802;51.564;-1.838;2022-07-06T05:56:51;4.20;;;3.63;;
55879;SDS011;41802;51.564;-1.838;2022-07-06T05:59:17;5.78;;;3.55;;
55879;SDS011;41802;51.564;-1.838;2022-07-06T06:01:44;6.03;;;4.40;;
55879;SDS011;41802;51.564;-1.838;2022-07-06T06:04:10;4.47;;;3.28;;
55879;SDS011;41802;51.564;-1.838;2022-07-06T06:06:37;6.13;;;4.22;;
55879;SDS011;41802;51.564;-1.838;2022-07-06T06:09:03;5.82;;;3.67;;
55879;SDS011;41802;51.564;-1.838;2022-07-06T06:11:30;5.95;;;4.05;;
55879;SDS011;41802;51.564;-1.838;2022-07-06T06:13:58;14.75;;;3.80;;
55879;SDS011;41802;51.564;-1.838;2022-07-06T06:16:25;4.25;;;3.85;;
55879;SDS011;41802;51.564;-1.838;2022-07-06T06:18:51;4.35;;;3.45;;
55879;SDS011;41802;51.564;-1.838;2022-07-06T06:21:18;6.45;;;3.78;;
55879;SDS011;41802;51.564;-1.838;2022-07-06T06:23:44;3.92;;;2.88;;
55879;SDS011;41802;51.564;-1.838;2022-07-06T06:26:10;6.00;;;3.03;;
55879;SDS011;41802;51.564;-1.838;2022-07-06T06:28:38;5.32;;;3.75;;
55879;SDS011;41802;51.564;-1.838;2022-07-06T06:31:08;8.13;;;4.05;;
55879;SDS011;41802;51.564;-1.838;2022-07-06T06:33:34;4.70;;;3.33;;
55879;SDS011;41802;51.564;-1.838;2022-07-06T06:36:01;5.05;;;3.17;;
55879;SDS011;41802;51.564;-1.838;2022-07-06T06:38:30;4.85;;;2.90;;
55879;SDS011;41802;51.564;-1.838;2022-07-06T06:40:57;9.90;;;3.78;;
55879;SDS011;41802;51.564;-1.838;2022-07-06T06:43:24;5.65;;;3.45;;
55879;SDS011;41802;51.564;-1.838;2022-07-06T06:45:50;4.40;;;3.25;;
55879;SDS011;41802;51.564;-1.838;2022-07-06T06:48:18;7.85;;;3.25;;
55879;SDS011;41802;51.564;-1.838;2022-07-06T06:50:45;4.65;;;3.88;;
55879;SDS011;41802;51.564;-1.838;2022-07-06T06:53:11;4.85;;;3.63;;
55879;SDS011;41802;51.564;-1.838;2022-07-06T06:55:38;9.25;;;4.22;;
55879;SDS011;41802;51.564;-1.838;2022-07-06T06:58:05;9.73;;;3.88;;
55879;SDS011;41802;51.564;-1.838;2022-07-06T07:00:31;18.52;;;4.35;;
55879;SDS011;41802;51.564;-1.838;2022-07-06T07:02:58;11.23;;;4.50;;
55879;SDS011;41802;51.564;-1.838;2022-07-06T07:05:26;8.52;;;4.13;;
55879;SDS011;41802;51.564;-1.838;2022-07-06T07:07:52;6.20;;;3.28;;
55879;SDS011;41802;51.564;-1.838;2022-07-06T07:10:24;9.98;;;4.10;;
55879;SDS011;41802;51.564;-1.838;2022-07-06T07:12:50;8.57;;;4.30;;
55879;SDS011;41802;51.564;-1.838;2022-07-06T07:15:17;7.65;;;4.13;;
55879;SDS011;41802;51.564;-1.838;2022-07-06T07:17:43;6.25;;;4.00;;
55879;SDS011;41802;51.564;-1.838;2022-07-06T07:20:11;10.23;;;3.90;;
55879;SDS011;41802;51.564;-1.838;2022-07-06T07:22:39;7.68;;;4.32;;
55879;SDS011;41802;51.564;-1.838;2022-07-06T07:25:06;8.10;;;3.78;;
55879;SDS011;41802;51.564;-1.838;2022-07-06T07:27:32;5.22;;;4.07;;
55879;SDS011;41802;51.564;-1.838;2022-07-06T07:29:59;8.60;;;5.35;;
55879;SDS011;41802;51.564;-1.838;2022-07-06T07:32:25;8.82;;;3.92;;
55879;SDS011;41802;51.564;-1.838;2022-07-06T07:34:52;8.68;;;4.20;;
55879;SDS011;41802;51.564;-1.838;2022-07-06T07:37:18;7.68;;;3.38;;
55879;SDS011;41802;51.564;-1.838;2022-07-06T07:39:46;7.68;;;3.97;;
55879;SDS011;41802;51.564;-1.838;2022-07-06T07:42:13;6.65;;;3.60;;
55879;SDS011;41802;51.564;-1.838;2022-07-06T07:44:39;6.00;;;3.08;;
55879;SDS011;41802;51.564;-1.838;2022-07-06T07:47:06;5.63;;;2.85;;
55879;SDS011;41802;51.564;-1.838;2022-07-06T07:49:33;7.85;;;3.10;;
55879;SDS011;41802;51.564;-1.838;2022-07-06T07:51:59;8.70;;;3.90;;
55879;SDS011;41802;51.564;-1.838;2022-07-06T07:54:26;3.97;;;3.10;;
55879;SDS011;41802;51.564;-1.838;2022-07-06T07:56:54;7.03;;;3.63;;
55879;SDS011;41802;51.564;-1.838;2022-07-06T07:59:20;4.65;;;3.17;;
55879;SDS011;41802;51.564;-1.838;2022-07-06T08:01:47;3.70;;;2.90;;
55879;SDS011;41802;51.564;-1.838;2022-07-06T08:04:13;7.25;;;3.30;;
55879;SDS011;41802;51.564;-1.838;2022-07-06T08:06:40;3.95;;;3.05;;
55879;SDS011;41802;51.564;-1.838;2022-07-06T08:09:06;7.03;;;3.50;;
55879;SDS011;41802;51.564;-1.838;2022-07-06T08:11:33;4.03;;;2.90;;
55879;SDS011;41802;51.564;-1.838;2022-07-06T08:14:01;4.47;;;2.90;;
55879;SDS011;41802;51.564;-1.838;2022-07-06T08:16:28;5.57;;;3.05;;
55879;SDS011;41802;51.564;-1.838;2022-07-06T08:18:54;3.22;;;2.17;;
55879;SDS011;41802;51.564;-1.838;2022-07-06T08:21:21;4.78;;;2.25;;
55879;SDS011;41802;51.564;-1.838;2022-07-06T08:23:47;3.22;;;2.28;;
55879;SDS011;41802;51.564;-1.838;2022-07-06T08:26:14;2.67;;;2.30;;
55879;SDS011;41802;51.564;-1.838;2022-07-06T08:28:40;3.33;;;2.22;;
55879;SDS011;41802;51.564;-1.838;2022-07-06T08:31:08;5.07;;;2.30;;
55879;SDS011;41802;51.564;-1.838;2022-07-06T08:33:35;5.15;;;2.15;;
55879;SDS011;41802;51.564;-1.838;2022-07-06T08:36:02;5.53;;;2.75;;
55879;SDS011;41802;51.564;-1.838;2022-07-06T08:38:28;4.55;;;2.20;;
55879;SDS011;41802;51.564;-1.838;2022-07-06T08:40:55;2.75;;;1.90;;
55879;SDS011;41802;51.564;-1.838;2022-07-06T08:43:21;3.53;;;1.65;;
55879;SDS011;41802;51.564;-1.838;2022-07-06T08:45:49;1.60;;;1.50;;
55879;SDS011;41802;51.564;-1.838;2022-07-06T08:48:17;2.35;;;1.83;;
55879;SDS011;41802;51.564;-1.838;2022-07-06T08:50:44;3.38;;;1.90;;
55879;SDS011;41802;51.564;-1.838;2022-07-06T08:53:11;2.53;;;1.75;;
55879;SDS011;41802;51.564;-1.838;2022-07-06T08:55:37;4.05;;;2.28;;
55879;SDS011;41802;51.564;-1.838;2022-07-06T08:58:05;2.00;;;1.80;;
55879;SDS011;41802;51.564;-1.838;2022-07-06T09:00:33;2.25;;;2.00;;
55879;SDS011;41802;51.564;-1.838;2022-07-06T09:03:00;2.30;;;1.58;;
55879;SDS011;41802;51.564;-1.838;2022-07-06T09:05:28;2.78;;;1.90;;
55879;SDS011;41802;51.564;-1.838;2022-07-06T09:07:54;2.20;;;1.83;;
55879;SDS011;41802;51.564;-1.838;2022-07-06T09:10:22;4.47;;;1.77;;
55879;SDS011;41802;51.564;-1.838;2022-07-06T09:12:48;2.35;;;1.67;;
55879;SDS011;41802;51.564;-1.838;2022-07-06T09:15:15;3.28;;;1.73;;
55879;SDS011;41802;51.564;-1.838;2022-07-06T09:17:42;2.10;;;1.58;;
55879;SDS011;41802;51.564;-1.838;2022-07-06T09:20:09;3.30;;;1.75;;
55879;SDS011;41802;51.564;-1.838;2022-07-06T09:22:37;3.88;;;1.55;;
55879;SDS011;41802;51.564;-1.838;2022-07-06T09:25:04;1.88;;;1.75;;
55879;SDS011;41802;51.564;-1.838;2022-07-06T09:27:30;2.53;;;1.48;;
55879;SDS011;41802;51.564;-1.838;2022-07-06T09:29:59;1.52;;;1.17;;
55879;SDS011;41802;51.564;-1.838;2022-07-06T09:32:26;2.92;;;1.85;;
55879;SDS011;41802;51.564;-1.838;2022-07-06T09:34:52;2.88;;;1.30;;
55879;SDS011;41802;51.564;-1.838;2022-07-06T09:37:19;2.08;;;1.63;;
55879;SDS011;41802;51.564;-1.838;2022-07-06T09:39:49;1.27;;;1.17;;
55879;SDS011;41802;51.564;-1.838;2022-07-06T09:42:16;1.42;;;1.33;;
55879;SDS011;41802;51.564;-1.838;2022-07-06T09:44:50;2.65;;;1.33;;
55879;SDS011;41802;51.564;-1.838;2022-07-06T09:47:17;2.72;;;1.63;;
55879;SDS011;41802;51.564;-1.838;2022-07-06T09:49:44;1.42;;;1.33;;
55879;SDS011;41802;51.564;-1.838;2022-07-06T09:52:13;2.72;;;1.40;;
55879;SDS011;41802;51.564;-1.838;2022-07-06T09:54:40;3.10;;;1.63;;
55879;SDS011;41802;51.564;-1.838;2022-07-06T09:57:07;2.80;;;1.30;;
55879;SDS011;41802;51.564;-1.838;2022-07-06T09:59:35;3.20;;;1.70;;
55879;SDS011;41802;51.564;-1.838;2022-07-06T10:02:03;2.20;;;1.67;;
55879;SDS011;41802;51.564;-1.838;2022-07-06T10:04:30;3.42;;;1.80;;
55879;SDS011;41802;51.564;-1.838;2022-07-06T10:06:57;2.00;;;1.60;;
55879;SDS011;41802;51.564;-1.838;2022-07-06T10:09:25;4.70;;;1.92;;
55879;SDS011;41802;51.564;-1.838;2022-07-06T10:11:52;2.33;;;1.60;;
55879;SDS011;41802;51.564;-1.838;2022-07-06T10:14:21;1.75;;;1.42;;
55879;SDS011;41802;51.564;-1.838;2022-07-06T10:16:48;2.08;;;1.20;;
55879;SDS011;41802;51.564;-1.838;2022-07-06T10:19:15;2.63;;;1.45;;
55879;SDS011;41802;51.564;-1.838;2022-07-06T10:21:43;2.40;;;1.23;;
55879;SDS011;41802;51.564;-1.838;2022-07-06T10:24:10;1.98;;;1.35;;
55879;SDS011;41802;51.564;-1.838;2022-07-06T10:26:37;3.88;;;1.67;;
55879;SDS011;41802;51.564;-1.838;2022-07-06T10:29:04;1.50;;;1.33;;
55879;SDS011;41802;51.564;-1.838;2022-07-06T10:31:33;7.22;;;1.35;;
55879;SDS011;41802;51.564;-1.838;2022-07-06T10:34:01;2.28;;;1.80;;
55879;SDS011;41802;51.564;-1.838;2022-07-06T10:36:28;2.15;;;1.48;;
55879;SDS011;41802;51.564;-1.838;2022-07-06T10:38:54;1.38;;;1.10;;
55879;SDS011;41802;51.564;-1.838;2022-07-06T10:41:29;5.38;;;1.10;;
55879;SDS011;41802;51.564;-1.838;2022-07-06T10:43:55;1.55;;;1.20;;
55879;SDS011;41802;51.564;-1.838;2022-07-06T10:46:23;1.23;;;1.08;;
55879;SDS011;41802;51.564;-1.838;2022-07-06T10:48:55;1.30;;;1.20;;
55879;SDS011;41802;51.564;-1.838;2022-07-06T10:51:23;1.40;;;1.30;;
55879;SDS011;41802;51.564;-1.838;2022-07-06T10:53:54;1.67;;;1.10;;
55879;SDS011;41802;51.564;-1.838;2022-07-06T10:56:32;1.23;;;1.10;;
55879;SDS011;41802;51.564;-1.838;2022-07-06T10:59:01;1.33;;;1.00;;
55879;SDS011;41802;51.564;-1.838;2022-07-06T11:01:28;1.15;;;0.90;;
55879;SDS011;41802;51.564;-1.838;2022-07-06T11:04:05;0.95;;;0.85;;
55879;SDS011;41802;51.564;-1.838;2022-07-06T11:06:33;2.53;;;0.77;;
55879;SDS011;41802;51.564;-1.838;2022-07-06T11:09:00;2.42;;;0.75;;
55879;SDS011;41802;51.564;-1.838;2022-07-06T11:11:37;2.25;;;0.88;;
55879;SDS011;41802;51.564;-1.838;2022-07-06T11:14:04;2.50;;;1.67;;
55879;SDS011;41802;51.564;-1.838;2022-07-06T11:16:32;1.08;;;0.95;;
55879;SDS011;41802;51.564;-1.838;2022-07-06T11:19:07;2.28;;;0.82;;
55879;SDS011;41802;51.564;-1.838;2022-07-06T11:21:38;1.15;;;0.70;;
55879;SDS011;41802;51.564;-1.838;2022-07-06T11:24:06;1.45;;;0.88;;
55879;SDS011;41802;51.564;-1.838;2022-07-06T11:26:33;0.85;;;0.73;;
55879;SDS011;41802;51.564;-1.838;2022-07-06T11:29:02;0.95;;;0.85;;
55879;SDS011;41802;51.564;-1.838;2022-07-06T11:31:29;1.60;;;0.80;;
55879;SDS011;41802;51.564;-1.838;2022-07-06T11:33:56;0.88;;;0.88;;
55879;SDS011;41802;51.564;-1.838;2022-07-06T11:36:23;2.10;;;0.95;;
55879;SDS011;41802;51.564;-1.838;2022-07-06T11:38:50;1.10;;;1.00;;
55879;SDS011;41802;51.564;-1.838;2022-07-06T11:41:17;1.10;;;0.98;;
55879;SDS011;41802;51.564;-1.838;2022-07-06T11:43:44;0.75;;;0.75;;
55879;SDS011;41802;51.564;-1.838;2022-07-06T11:46:24;1.27;;;1.17;;
55879;SDS011;41802;51.564;-1.838;2022-07-06T11:48:51;1.38;;;0.77;;
55879;SDS011;41802;51.564;-1.838;2022-07-06T11:51:18;1.73;;;0.70;;
55879;SDS011;41802;51.564;-1.838;2022-07-06T11:53:46;1.33;;;0.60;;
55879;SDS011;41802;51.564;-1.838;2022-07-06T11:56:14;1.10;;;0.75;;
55879;SDS011;41802;51.564;-1.838;2022-07-06T11:58:40;1.27;;;0.70;;
55879;SDS011;41802;51.564;-1.838;2022-07-06T12:01:10;1.17;;;1.07;;
55879;SDS011;41802;51.564;-1.838;2022-07-06T12:03:37;0.60;;;0.60;;
55879;SDS011;41802;51.564;-1.838;2022-07-06T12:06:03;0.63;;;0.60;;
55879;SDS011;41802;51.564;-1.838;2022-07-06T12:08:30;0.70;;;0.70;;
55879;SDS011;41802;51.564;-1.838;2022-07-06T12:11:00;1.30;;;0.80;;
55879;SDS011;41802;51.564;-1.838;2022-07-06T12:13:26;1.98;;;1.00;;
55879;SDS011;41802;51.564;-1.838;2022-07-06T12:15:53;1.17;;;0.68;;
55879;SDS011;41802;51.564;-1.838;2022-07-06T12:18:19;2.65;;;0.70;;
55879;SDS011;41802;51.564;-1.838;2022-07-06T12:20:46;0.65;;;0.50;;
55879;SDS011;41802;51.564;-1.838;2022-07-06T12:23:13;1.95;;;0.70;;
55879;SDS011;41802;51.564;-1.838;2022-07-06T12:25:40;0.70;;;0.60;;
55879;SDS011;41802;51.564;-1.838;2022-07-06T12:28:08;0.70;;;0.65;;
55879;SDS011;41802;51.564;-1.838;2022-07-06T12:30:47;1.08;;;0.50;;
55879;SDS011;41802;51.564;-1.838;2022-07-06T12:33:14;0.50;;;0.40;;
55879;SDS011;41802;51.564;-1.838;2022-07-06T12:35:40;1.85;;;0.70;;
55879;SDS011;41802;51.564;-1.838;2022-07-06T12:38:07;1.67;;;0.95;;
55879;SDS011;41802;51.564;-1.838;2022-07-06T12:40:35;0.68;;;0.57;;
55879;SDS011;41802;51.564;-1.838;2022-07-06T12:43:02;1.77;;;0.70;;
55879;SDS011;41802;51.564;-1.838;2022-07-06T12:45:30;1.75;;;0.70;;
55879;SDS011;41802;51.564;-1.838;2022-07-06T12:47:57;0.53;;;0.40;;
55879;SDS011;41802;51.564;-1.838;2022-07-06T12:50:30;0.70;;;0.60;;
55879;SDS011;41802;51.564;-1.838;2022-07-06T12:52:57;1.77;;;0.73;;
55879;SDS011;41802;51.564;-1.838;2022-07-06T12:55:25;1.63;;;0.50;;
55879;SDS011;41802;51.564;-1.838;2022-07-06T12:57:52;1.42;;;0.95;;
55879;SDS011;41802;51.564;-1.838;2022-07-06T13:00:19;1.10;;;0.63;;
55879;SDS011;41802;51.564;-1.838;2022-07-06T13:02:49;4.65;;;0.75;;
55879;SDS011;41802;51.564;-1.838;2022-07-06T13:05:21;1.38;;;0.70;;
55879;SDS011;41802;51.564;-1.838;2022-07-06T13:07:52;2.80;;;0.60;;
55879;SDS011;41802;51.564;-1.838;2022-07-06T13:10:19;1.15;;;0.70;;
55879;SDS011;41802;51.564;-1.838;2022-07-06T13:12:46;1.17;;;0.55;;
55879;SDS011;41802;51.564;-1.838;2022-07-06T13:15:13;1.35;;;0.63;;
55879;SDS011;41802;51.564;-1.838;2022-07-06T13:17:39;0.77;;;0.77;;
55879;SDS011;41802;51.564;-1.838;2022-07-06T13:20:08;1.95;;;0.60;;
55879;SDS011;41802;51.564;-1.838;2022-07-06T13:22:34;0.63;;;0.60;;
55879;SDS011;41802;51.564;-1.838;2022-07-06T13:25:01;0.50;;;0.50;;
55879;SDS011;41802;51.564;-1.838;2022-07-06T13:27:27;0.70;;;0.70;;
55879;SDS011;41802;51.564;-1.838;2022-07-06T13:29:54;0.65;;;0.60;;
55879;SDS011;41802;51.564;-1.838;2022-07-06T13:32:20;1.08;;;0.60;;
55879;SDS011;41802;51.564;-1.838;2022-07-06T13:34:47;0.60;;;0.60;;
55879;SDS011;41802;51.564;-1.838;2022-07-06T13:37:15;3.30;;;0.65;;
55879;SDS011;41802;51.564;-1.838;2022-07-06T13:39:42;0.60;;;0.60;;
55879;SDS011;41802;51.564;-1.838;2022-07-06T13:42:08;2.22;;;0.88;;
55879;SDS011;41802;51.564;-1.838;2022-07-06T13:44:35;1.10;;;0.50;;
55879;SDS011;41802;51.564;-1.838;2022-07-06T13:47:01;1.20;;;0.52;;
55879;SDS011;41802;51.564;-1.838;2022-07-06T13:49:28;2.03;;;0.80;;
55879;SDS011;41802;51.564;-1.838;2022-07-06T13:51:54;0.45;;;0.45;;
55879;SDS011;41802;51.564;-1.838;2022-07-06T13:54:28;0.75;;;0.75;;
55879;SDS011;41802;51.564;-1.838;2022-07-06T13:56:55;0.75;;;0.75;;
55879;SDS011;41802;51.564;-1.838;2022-07-06T13:59:21;0.80;;;0.70;;
55879;SDS011;41802;51.564;-1.838;2022-07-06T14:01:48;1.52;;;0.90;;
55879;SDS011;41802;51.564;-1.838;2022-07-06T14:04:14;2.13;;;0.40;;
55879;SDS011;41802;51.564;-1.838;2022-07-06T14:06:41;0.77;;;0.50;;
55879;SDS011;41802;51.564;-1.838;2022-07-06T14:09:07;2.50;;;0.90;;
55879;SDS011;41802;51.564;-1.838;2022-07-06T14:11:35;2.83;;;0.68;;
55879;SDS011;41802;51.564;-1.838;2022-07-06T14:14:02;0.82;;;0.68;;
55879;SDS011;41802;51.564;-1.838;2022-07-06T14:16:32;0.75;;;0.50;;
55879;SDS011;41802;51.564;-1.838;2022-07-06T14:18:59;1.52;;;0.70;;
55879;SDS011;41802;51.564;-1.838;2022-07-06T14:21:25;1.15;;;0.60;;
55879;SDS011;41802;51.564;-1.838;2022-07-06T14:23:52;0.60;;;0.60;;
55879;SDS011;41802;51.564;-1.838;2022-07-06T14:26:18;3.13;;;0.90;;
55879;SDS011;41802;51.564;-1.838;2022-07-06T14:28:46;1.38;;;0.85;;
55879;SDS011;41802;51.564;-1.838;2022-07-06T14:31:13;0.70;;;0.68;;
55879;SDS011;41802;51.564;-1.838;2022-07-06T14:33:39;0.65;;;0.60;;